AIRPORT MAP

 RUNWAY INFORMATION

Runway 08 Runway length 10072 ft Runway width 148 ft
Runway elevation 129 ft Runway displaced threshold 820 ft Runway heading 90
Runway 26 Runway length 10072 ft Runway width 148 ft
Runway elevation 131 ft Runway displaced threshold 0 ft Runway heading 270

 AIRPORT FREQUENCIES

Type APP Name APP Frequency 127.9 MHZ
Type ATIS Name ATIS Frequency 124.875 MHZ
Type TWR Name TWR Frequency 120.6 MHZ

 AIRPORT NEAR NAVIGATION AIDS

Type NDB Name Tallinn Frequency 329 KHZ
Type NDB Name Tallinn Frequency 386 KHZ
Type VOR-DME Name Tallinn Frequency 112200 KHZ

 METAR AND TAF INFORMATION

METAR FOR EETN
ADDS - METARS form results

(0928 UTC 25 January 2020)
Data provider http://aviationweather.gov/metar/data/
 
METAR text: EETN 250920Z 30018KT 9999 FEW032 02/M04 Q1002 R08/290195 TEMPO 30020G30KT
Conditions at: EETN (TALLINN , EE) observed 0920 UTC 25 January 2020
Temperature: 2.0°C (36°F)
Dewpoint: -4.0°C (25°F) [RH = 64%]
Pressure (altimeter): 29.59 inches Hg (1002.0 mb)
Winds: from the WNW (300 degrees) at 21 MPH (18 knots; 9.3 m/s)
Visibility: 6 or more miles (10+ km)
Ceiling: at least 12,000 feet AGL
Clouds: few clouds at 3200 feet AGL
Weather: no significant weather observed at this time

METAR text: EETN 250850Z 30016G28KT 9999 SCT032 03/M04 Q1001 R08/290195 TEMPO 30020G30KT
Conditions at: EETN (TALLINN , EE) observed 0850 UTC 25 January 2020
Temperature: 3.0°C (37°F)
Dewpoint: -4.0°C (25°F) [RH = 60%]
Pressure (altimeter): 29.56 inches Hg (1001.0 mb)
Winds: from the WNW (300 degrees) at 18 MPH (16 knots; 8.2 m/s)
gusting to 32 MPH (28 knots; 14.4 m/s)
Visibility: 6 or more miles (10+ km)
Ceiling: at least 12,000 feet AGL
Clouds: scattered clouds at 3200 feet AGL
Weather: no significant weather observed at this time

Forecast for: EETN (TALLINN , EE)
Text: TAF EETN 250530Z 2506/2606 29017G30KT CAVOK
Forecast period: 0600 to 2200 UTC 25 January 2020
Forecast type: FROM: standard forecast or significant change
Winds: from the WNW (290 degrees) at 20 MPH (17 knots; 8.7 m/s)
gusting to 34 MPH (30 knots; 15.4 m/s)
Visibility: 6 or more miles 10+ km)
Ceiling: unknown
Clouds: missing
Weather: NSW  (no significant weather)
Text: BECMG 2522/2524 23012KT 9999 BKN015
Forecast period: 2200 UTC 25 January 2020 to 0600 UTC 26 January 2020
Forecast type: BECOMING: Conditions expected to become as follows by 0000 UTC 26 January 2020
Winds: from the SW (230 degrees) at 14 MPH (12 knots; 6.2 m/s)
Visibility: 6 or more miles 10+ km)
Ceiling: 1500 feet AGL
Clouds: broken clouds at 1500 feet AGL
Weather: NSW  (no significant weather)
Text: TEMPO 2602/2606 3000 SHRASN BR BKN008 SCT015CB
Forecast period: 0200 to 0600 UTC 26 January 2020
Forecast type: TEMPORARY: The following changes expected for less than half the time period
Visibility: 1.86 miles (2.99 km)
Ceiling: 800 feet AGL
Clouds: broken clouds at 800 feet AGL
scattered clouds at 1500 feet AGL
Weather: SHRA SHSN BR  (rain showers, snow showers, mist)